This is the latest recevied weather packets stored in our database for station/object VE6EN. If no packets are shown the sender has not sent any weather packets the latest 10 day(s).
| Time | Temp. | Humidity | Pressure | Rain* | Wind** | Luminosity | Snow |
|---|---|---|---|---|---|---|---|
| 1787938800 | 20° C | 46% | 1011.3 hPa | 0 mm | - | - | - |
| 1787938200 | 20° C | 48% | 1011.3 hPa | 0 mm | - | - | - |
| 1787937600 | 20° C | 49% | 1011.4 hPa | 0 mm | - | - | - |
| 1787937000 | 20° C | 45% | 1011.4 hPa | 0 mm | - | - | - |
| 1787936404 | 20° C | 49% | 1011.4 hPa | 0 mm | - | - | - |
| 1787935807 | 19.44° C | 52% | 1011.3 hPa | 0 mm | - | - | - |
| 1787935203 | 18.89° C | 53% | 1011.4 hPa | 0 mm | - | - | - |
| 1787934600 | 18.89° C | 54% | 1011.5 hPa | 0 mm | - | - | - |
| 1787934005 | 18.33° C | 55% | 1011.6 hPa | 0 mm | - | - | - |
| 1787933400 | 17.78° C | 56% | 1011.7 hPa | 0 mm | - | - | - |
| 1787932804 | 17.22° C | 58% | 1011.7 hPa | 0 mm | - | - | - |
| 1787932627 | 17.22° C | 59% | 1011.7 hPa | 0 mm | - | - | - |
| 1787928605 | 13.89° C | 66% | 1011.8 hPa | 0 mm | - | - | - |
| 1787928487 | 13.89° C | 65% | 1011.9 hPa | 0 mm | - | - | - |
| 1787921406 | 10° C | 71% | 1011.3 hPa | 0 mm | - | - | - |
| 1787920808 | 10.56° C | 70% | 1011.2 hPa | 0 mm | - | - | - |
| 1787920200 | 10.56° C | 69% | 1011.2 hPa | 0 mm | - | - | - |
| 1787919604 | 10.56° C | 68% | 1011.1 hPa | 0 mm | - | - | - |
| 1787919009 | 11.11° C | 68% | 1011.1 hPa | 0 mm | - | - | - |
| 1787918404 | 11.11° C | 69% | 1011.1 hPa | 0 mm | - | - | - |
| 1787917803 | 10.56° C | 70% | 1011 hPa | 0 mm | - | - | - |
| 1787917212 | 10.56° C | 71% | 1010.9 hPa | 0 mm | - | - | - |
| 1787916600 | 10.56° C | 70% | 1010.9 hPa | 0 mm | - | - | - |
| 1787916003 | 10.56° C | 70% | 1010.7 hPa | 0 mm | - | - | - |
| 1787915405 | 10.56° C | 69% | 1010.6 hPa | 0 mm | - | - | - |
* Rain latest hour (hover to see other rain measurements)
** Current wind speed in m/s (hover to see current wind gust speed)